Terminal Aerodrome Forecast
Issued by NWS

Home | Current Version | Previous Version | Text Only | Print | Product List | Glossary On
Versions: 1 2 3 4 5 6 7 8 9 10 11 12 13 14 15 16 17 18
000
FTUS43 KDLH 281700 RRA
TAFHYR
TAF
KHYR 281744Z 2818/2918 17008KT P6SM SCT250
     FM290100 16008KT P6SM VCSH SCT035 BKN080
     FM290400 12006KT 3SM -SHRA BR OVC010
      TEMPO 2908/2912 1SM TSRA BR OVC006CB
     FM291200 17007KT 2SM -SHRA BR VCTS OVC004CB=

USA.gov is the U.S. government's official web portal to all federal, state and local government web resources and services.